Time;durP1;ratioP1;P1;durP2;ratioP2;P2;SDS_P1;SDS_P2;PMS_P1;PMS_P2;Temp;Humidity;BMP_temperature;BMP_pressure;BME280_temperature;BME280_humidity;BME280_pressure;Samples;Min_cycle;Max_cycle;Signal;HPM_P1;HPM_P2
2023/08/17 00:00:03;;;;;;;1.52;1.30;;;22.90;75.10;;;;;;5077929;28;20081;-21
2023/08/17 00:02:28;;;;;;;1.63;1.27;;;22.80;75.10;;;;;;5036209;28;20384;-24
2023/08/17 00:04:54;;;;;;;1.93;1.10;;;22.80;75.10;;;;;;5080398;28;20367;-21
2023/08/17 00:07:20;;;;;;;1.50;1.08;;;22.80;75.10;;;;;;5065699;28;20573;-23
2023/08/17 00:09:45;;;;;;;3.70;1.37;;;22.80;75.10;;;;;;5062739;28;20293;-22
2023/08/17 00:12:11;;;;;;;1.30;1.20;;;22.70;75.20;;;;;;5050835;28;20060;-22
2023/08/17 00:14:37;;;;;;;1.87;1.40;;;22.70;75.40;;;;;;5075369;28;20192;-21
2023/08/17 00:17:03;;;;;;;1.88;1.27;;;22.70;75.40;;;;;;5016562;28;20510;-22
2023/08/17 00:19:29;;;;;;;1.63;1.33;;;22.70;75.50;;;;;;5005635;28;20033;-23
2023/08/17 00:21:55;;;;;;;1.40;1.30;;;22.60;75.60;;;;;;5020464;28;20064;-21
2023/08/17 00:24:21;;;;;;;1.77;1.38;;;22.60;75.60;;;;;;5024346;28;20017;-26
2023/08/17 00:26:46;;;;;;;2.70;1.43;;;22.60;75.70;;;;;;5035151;28;20037;-21
2023/08/17 00:29:14;;;;;;;2.35;1.30;;;22.60;75.70;;;;;;5026628;28;20298;-22
2023/08/17 00:31:41;;;;;;;1.60;1.30;;;22.60;75.90;;;;;;5026905;28;20253;-21
2023/08/17 00:34:06;;;;;;;1.83;1.30;;;22.50;75.90;;;;;;5005359;28;20032;-22
2023/08/17 00:36:32;;;;;;;1.43;1.30;;;22.50;76.00;;;;;;5022933;28;20060;-26
2023/08/17 00:38:58;;;;;;;1.30;1.20;;;22.50;76.20;;;;;;5002823;28;20284;-26
2023/08/17 00:41:23;;;;;;;2.23;1.33;;;22.40;76.20;;;;;;5034487;28;20072;-27
2023/08/17 00:43:49;;;;;;;1.60;1.30;;;22.40;76.20;;;;;;5016519;28;20403;-26
2023/08/17 00:46:16;;;;;;;1.90;1.47;;;22.40;76.20;;;;;;5031859;28;20273;-26
2023/08/17 00:48:43;;;;;;;2.17;1.50;;;22.40;76.20;;;;;;5021903;28;20845;-27
2023/08/17 00:51:09;;;;;;;2.25;1.70;;;22.30;76.30;;;;;;5017692;28;20162;-30
2023/08/17 00:53:35;;;;;;;1.40;1.30;;;22.30;76.20;;;;;;5020530;28;20029;-28
2023/08/17 00:56:02;;;;;;;1.90;1.50;;;22.30;76.30;;;;;;5025027;28;20233;-29
2023/08/17 00:58:28;;;;;;;3.20;1.40;;;22.20;76.30;;;;;;5025462;28;20322;-29
2023/08/17 01:00:54;;;;;;;1.60;1.40;;;22.20;76.40;;;;;;5026721;28;20658;-21
2023/08/17 01:03:21;;;;;;;2.10;1.42;;;22.10;76.40;;;;;;5018737;23;20050;-22
2023/08/17 01:05:47;;;;;;;1.65;1.50;;;22.10;76.60;;;;;;4966064;28;20034;-23
2023/08/17 01:08:13;;;;;;;2.00;1.40;;;22.00;76.60;;;;;;4980845;28;20040;-22
2023/08/17 01:11:10;;;;;;;2.20;1.40;;;22.00;76.60;;;;;;4986735;28;20036;-25
2023/08/17 01:13:47;;;;;;;2.28;1.45;;;21.90;77.60;;;;;;4981976;28;20033;-26
2023/08/17 01:16:20;;;;;;;1.70;1.45;;;21.90;77.30;;;;;;4988788;28;20049;-24
2023/08/17 01:18:47;;;;;;;1.57;1.40;;;21.90;77.10;;;;;;5003484;28;20499;-25
2023/08/17 01:21:18;;;;;;;2.13;1.38;;;21.80;76.90;;;;;;4971735;28;20357;-25
2023/08/17 01:23:48;;;;;;;1.52;1.42;;;21.70;77.30;;;;;;4991306;28;20452;-26
2023/08/17 01:26:15;;;;;;;1.58;1.35;;;21.70;77.40;;;;;;4971547;28;20030;-25
2023/08/17 01:28:47;;;;;;;1.60;1.50;;;21.70;77.20;;;;;;4990363;28;20493;-26
2023/08/17 01:31:13;;;;;;;1.40;1.30;;;21.60;77.80;;;;;;4985132;28;20703;-24
2023/08/17 01:33:47;;;;;;;2.53;1.40;;;21.60;77.40;;;;;;4988312;28;20046;-26
2023/08/17 01:36:22;;;;;;;2.58;1.48;;;21.50;77.90;;;;;;4986028;28;20637;-24
2023/08/17 01:38:51;;;;;;;1.50;1.33;;;21.50;78.40;;;;;;4969736;28;20030;-26
2023/08/17 01:41:18;;;;;;;2.27;1.40;;;21.40;77.90;;;;;;4979085;28;20049;-26
2023/08/17 01:43:45;;;;;;;1.88;1.25;;;21.40;77.80;;;;;;4971839;28;20030;-26
2023/08/17 01:46:16;;;;;;;1.83;1.33;;;21.40;77.90;;;;;;4986135;28;20230;-25
2023/08/17 01:48:42;;;;;;;1.83;1.30;;;21.40;78.40;;;;;;5003577;28;20414;-26
2023/08/17 01:51:09;;;;;;;2.38;1.35;;;21.30;78.00;;;;;;4990684;28;20124;-25
2023/08/17 01:53:35;;;;;;;1.80;1.37;;;21.30;78.10;;;;;;4968217;28;20081;-26
2023/08/17 01:56:01;;;;;;;1.80;1.20;;;21.30;78.10;;;;;;4966956;28;20409;-25
2023/08/17 01:58:27;;;;;;;2.47;1.50;;;21.20;78.10;;;;;;4990482;28;20442;-24
2023/08/17 02:00:52;;;;;;;2.05;1.15;;;21.20;79.00;;;;;;4974802;28;20041;-26
2023/08/17 02:03:18;;;;;;;1.87;1.40;;;21.20;78.40;;;;;;4990484;28;20058;-24
2023/08/17 02:05:47;;;;;;;2.00;1.30;;;21.10;78.50;;;;;;4986361;28;20038;-26
2023/08/17 02:08:15;;;;;;;1.92;1.50;;;21.10;78.90;;;;;;4974852;28;20678;-24
2023/08/17 02:10:40;;;;;;;2.13;1.30;;;21.10;78.70;;;;;;4969332;28;20025;-26
2023/08/17 02:13:06;;;;;;;1.33;1.20;;;21.10;78.80;;;;;;4985900;28;20239;-25
2023/08/17 02:15:32;;;;;;;2.03;1.30;;;21.10;79.10;;;;;;4981890;28;20023;-28
2023/08/17 02:18:01;;;;;;;1.90;1.27;;;21.10;79.10;;;;;;4982967;28;20252;-27
2023/08/17 02:20:27;;;;;;;2.08;1.40;;;21.10;79.60;;;;;;4989262;28;20030;-28
2023/08/17 02:22:52;;;;;;;1.43;1.20;;;21.10;79.30;;;;;;4965129;28;20026;-27
2023/08/17 02:25:18;;;;;;;2.42;1.38;;;21.10;79.50;;;;;;4994980;28;20028;-28
2023/08/17 02:27:44;;;;;;;1.53;1.30;;;21.10;79.40;;;;;;4972207;28;20037;-27
2023/08/17 02:30:10;;;;;;;1.13;1.02;;;21.10;79.50;;;;;;4983079;28;20853;-28
2023/08/17 02:32:36;;;;;;;1.80;1.30;;;21.10;79.50;;;;;;4994833;28;20037;-28
2023/08/17 02:35:02;;;;;;;2.63;1.33;;;21.20;79.60;;;;;;4976926;28;20550;-28
2023/08/17 02:37:27;;;;;;;1.90;1.23;;;21.10;79.50;;;;;;4988525;28;20124;-28
2023/08/17 02:39:53;;;;;;;1.97;1.20;;;21.10;79.50;;;;;;4965140;28;20038;-27
2023/08/17 02:42:19;;;;;;;1.58;1.40;;;21.10;79.60;;;;;;4972758;28;20046;-28
2023/08/17 02:44:45;;;;;;;1.60;1.20;;;21.10;79.50;;;;;;4974730;28;20153;-27
2023/08/17 02:47:11;;;;;;;1.57;1.20;;;21.10;79.50;;;;;;4984302;28;20113;-28
2023/08/17 02:49:37;;;;;;;1.58;1.25;;;21.10;79.50;;;;;;4991791;28;20026;-27
2023/08/17 02:52:02;;;;;;;1.88;1.30;;;21.10;79.60;;;;;;4964838;28;20202;-28
2023/08/17 02:54:28;;;;;;;2.13;1.30;;;21.10;79.60;;;;;;4969786;28;20113;-28
2023/08/17 02:56:54;;;;;;;1.70;1.40;;;21.00;79.60;;;;;;4982179;28;20212;-27
2023/08/17 02:59:19;;;;;;;1.50;1.20;;;21.00;79.70;;;;;;4988409;28;20053;-28
2023/08/17 03:01:45;;;;;;;1.75;1.50;;;20.90;79.60;;;;;;4977804;28;20030;-27
2023/08/17 03:04:11;;;;;;;3.10;1.33;;;20.90;79.70;;;;;;4976448;28;20119;-27
2023/08/17 03:06:37;;;;;;;2.33;1.50;;;20.90;79.80;;;;;;4988898;28;20038;-27
2023/08/17 03:09:03;;;;;;;1.53;1.40;;;20.90;79.80;;;;;;4962473;28;20221;-27
2023/08/17 03:11:29;;;;;;;1.30;1.20;;;20.80;79.80;;;;;;4986673;28;20124;-27
2023/08/17 03:14:00;;;;;;;1.42;1.20;;;20.80;79.80;;;;;;4994080;28;20057;-28
2023/08/17 03:16:30;;;;;;;1.80;1.30;;;20.80;79.90;;;;;;4973615;28;20434;-27
2023/08/17 03:18:56;;;;;;;2.03;1.20;;;20.70;80.30;;;;;;4987118;28;20536;-27
2023/08/17 03:21:22;;;;;;;2.00;1.40;;;20.70;80.10;;;;;;4983136;28;20577;-28
2023/08/17 03:23:48;;;;;;;2.05;1.30;;;20.70;80.30;;;;;;4969448;28;20077;-28
2023/08/17 03:26:15;;;;;;;1.48;1.35;;;20.60;80.40;;;;;;4982253;28;20026;-27
2023/08/17 03:28:41;;;;;;;2.37;1.30;;;20.60;80.60;;;;;;4988769;28;20030;-28
2023/08/17 03:31:10;;;;;;;2.03;1.50;;;20.60;80.70;;;;;;4980598;28;20065;-27
2023/08/17 03:33:36;;;;;;;1.92;1.42;;;20.60;81.00;;;;;;4985182;28;20226;-27
2023/08/17 03:36:03;;;;;;;2.15;1.30;;;20.60;81.10;;;;;;4989689;28;20387;-27
2023/08/17 03:38:28;;;;;;;2.13;1.30;;;20.60;81.10;;;;;;4970113;28;20705;-27
2023/08/17 03:40:54;;;;;;;1.73;1.30;;;20.60;81.20;;;;;;4989779;28;20030;-28
2023/08/17 03:43:20;;;;;;;1.50;1.30;;;20.60;81.30;;;;;;4984448;28;20056;-27
2023/08/17 03:45:46;;;;;;;1.60;1.40;;;20.70;82.20;;;;;;4993788;28;20080;-28
2023/08/17 03:48:12;;;;;;;1.52;1.30;;;20.70;81.60;;;;;;4969075;28;20057;-27
2023/08/17 03:50:38;;;;;;;2.70;1.40;;;20.70;81.60;;;;;;4992345;28;20033;-28
2023/08/17 03:53:04;;;;;;;2.85;1.60;;;20.70;81.70;;;;;;4993147;28;20022;-28
2023/08/17 03:55:30;;;;;;;2.65;1.30;;;20.70;81.80;;;;;;4970638;28;20392;-27
2023/08/17 03:57:55;;;;;;;2.10;1.50;;;20.80;81.80;;;;;;4981239;28;20266;-27
2023/08/17 04:00:21;;;;;;;1.55;1.27;;;20.80;81.80;;;;;;4987920;28;20119;-27
2023/08/17 04:02:47;;;;;;;1.50;1.30;;;20.80;81.80;;;;;;4983096;28;20060;-28
2023/08/17 04:05:13;;;;;;;1.53;1.20;;;20.80;81.90;;;;;;4990032;28;20273;-27
2023/08/17 04:07:39;;;;;;;1.98;1.20;;;20.80;81.80;;;;;;4992912;28;20563;-28
2023/08/17 04:10:08;;;;;;;1.40;1.13;;;20.80;81.80;;;;;;4956931;28;20110;-27
2023/08/17 04:12:34;;;;;;;1.60;1.30;;;20.80;82.20;;;;;;4996812;28;20026;-27
2023/08/17 04:15:00;;;;;;;1.52;1.20;;;20.80;81.90;;;;;;4992233;28;20095;-28
2023/08/17 04:17:26;;;;;;;2.37;1.40;;;20.90;82.10;;;;;;4972759;28;20034;-27
2023/08/17 04:19:52;;;;;;;1.23;1.13;;;20.90;82.00;;;;;;4974423;28;20514;-28
2023/08/17 04:22:18;;;;;;;2.03;1.13;;;20.90;81.90;;;;;;4975084;28;20182;-27
2023/08/17 04:24:43;;;;;;;1.80;1.20;;;20.90;81.90;;;;;;4991388;28;20034;-28
2023/08/17 04:27:09;;;;;;;1.33;1.20;;;20.90;82.00;;;;;;4969049;28;20291;-27
2023/08/17 04:29:37;;;;;;;2.38;1.20;;;20.90;82.00;;;;;;4979327;28;20055;-28
2023/08/17 04:32:03;;;;;;;2.08;1.20;;;20.90;82.10;;;;;;4989341;28;20022;-27
2023/08/17 04:34:29;;;;;;;1.65;1.20;;;20.90;82.10;;;;;;4974623;28;20095;-28
2023/08/17 04:36:55;;;;;;;2.03;1.20;;;20.90;82.10;;;;;;4997225;28;20030;-24
2023/08/17 04:39:20;;;;;;;1.53;1.20;;;20.90;82.10;;;;;;4987435;28;20316;-24
2023/08/17 04:41:46;;;;;;;1.42;1.10;;;20.90;82.20;;;;;;4973590;28;20038;-24
2023/08/17 04:44:12;;;;;;;2.17;1.40;;;20.90;82.20;;;;;;4978775;28;20447;-26
2023/08/17 04:46:38;;;;;;;2.37;1.40;;;20.90;82.40;;;;;;4990640;28;20034;-25
2023/08/17 04:49:04;;;;;;;1.80;1.20;;;20.90;82.20;;;;;;4985586;28;20022;-26
2023/08/17 04:51:30;;;;;;;2.53;1.30;;;20.90;82.30;;;;;;4971593;28;20307;-25
2023/08/17 04:53:55;;;;;;;1.98;1.30;;;20.90;82.40;;;;;;4987559;28;20362;-23
2023/08/17 04:56:21;;;;;;;2.47;1.30;;;20.90;82.30;;;;;;4965157;28;21880;-24
2023/08/17 04:58:47;;;;;;;1.70;1.30;;;21.00;82.40;;;;;;4992706;28;20033;-24
2023/08/17 05:01:13;;;;;;;2.08;1.30;;;20.90;82.20;;;;;;4985472;28;20406;-26
2023/08/17 05:03:39;;;;;;;2.37;1.30;;;20.90;82.30;;;;;;4973005;28;20100;-24
2023/08/17 05:06:05;;;;;;;2.35;1.13;;;20.90;82.40;;;;;;4980516;28;20026;-26
2023/08/17 05:08:30;;;;;;;1.70;1.30;;;20.90;82.40;;;;;;4977597;28;20365;-24
2023/08/17 05:10:56;;;;;;;2.08;1.20;;;20.90;82.40;;;;;;4990043;28;20065;-26
2023/08/17 05:13:22;;;;;;;1.67;1.30;;;20.90;82.40;;;;;;4958646;28;20285;-25
2023/08/17 05:15:47;;;;;;;2.08;1.38;;;20.90;82.60;;;;;;4989300;28;20280;-26
2023/08/17 05:18:13;;;;;;;2.40;1.23;;;20.90;82.50;;;;;;4988891;28;20382;-24
2023/08/17 05:20:39;;;;;;;2.42;1.27;;;20.90;82.50;;;;;;4981079;28;20034;-26
2023/08/17 05:23:05;;;;;;;1.50;1.10;;;20.90;82.50;;;;;;4969500;28;20557;-26
2023/08/17 05:25:30;;;;;;;3.28;1.25;;;20.90;82.50;;;;;;4989943;28;20050;-24
2023/08/17 05:27:56;;;;;;;2.45;1.42;;;20.90;82.40;;;;;;4976980;28;20045;-26
2023/08/17 05:30:22;;;;;;;1.80;1.27;;;20.90;82.50;;;;;;4982794;28;20699;-24
2023/08/17 05:32:48;;;;;;;1.98;1.30;;;20.90;82.60;;;;;;4987503;28;20046;-26
2023/08/17 05:35:14;;;;;;;2.17;1.23;;;20.90;82.50;;;;;;4980340;28;20524;-25
2023/08/17 05:37:39;;;;;;;2.25;1.40;;;20.90;82.50;;;;;;4983092;28;20136;-24
2023/08/17 05:40:06;;;;;;;1.92;1.30;;;20.90;82.60;;;;;;4967541;28;20037;-24
2023/08/17 05:42:32;;;;;;;1.97;1.27;;;20.90;82.70;;;;;;4980679;28;20222;-24
2023/08/17 05:44:57;;;;;;;1.63;1.10;;;20.90;82.70;;;;;;4974599;28;20037;-24
2023/08/17 05:47:23;;;;;;;2.30;1.20;;;20.90;82.70;;;;;;4988700;28;20038;-26
2023/08/17 05:49:49;;;;;;;1.63;1.13;;;20.90;82.80;;;;;;4993991;28;20030;-24
2023/08/17 05:52:15;;;;;;;1.83;1.20;;;20.90;82.90;;;;;;4971258;28;20034;-26
2023/08/17 05:54:42;;;;;;;2.27;1.30;;;20.90;82.90;;;;;;4980952;28;20773;-25
2023/08/17 05:57:08;;;;;;;1.60;1.40;;;20.90;82.90;;;;;;4990501;28;20100;-25
2023/08/17 05:59:33;;;;;;;2.30;1.30;;;20.90;82.90;;;;;;4969506;28;20135;-24
2023/08/17 06:01:59;;;;;;;1.97;1.23;;;20.90;82.90;;;;;;4992002;28;20025;-24
2023/08/17 06:04:25;;;;;;;1.55;1.20;;;21.00;83.10;;;;;;4976558;28;20418;-26
2023/08/17 06:06:51;;;;;;;2.63;1.30;;;21.00;83.00;;;;;;4985064;28;20046;-25
2023/08/17 06:09:16;;;;;;;2.20;1.20;;;21.00;83.00;;;;;;4985503;28;20406;-26
2023/08/17 06:11:42;;;;;;;1.30;1.20;;;21.10;83.10;;;;;;4985653;28;20113;-24
2023/08/17 06:14:08;;;;;;;3.80;1.30;;;21.10;83.00;;;;;;4960131;28;20411;-25
2023/08/17 06:16:35;;;;;;;2.10;1.30;;;21.10;83.00;;;;;;4988532;28;20589;-25
2023/08/17 06:19:00;;;;;;;1.55;1.30;;;21.10;82.90;;;;;;4990110;28;20694;-24
2023/08/17 06:21:26;;;;;;;1.80;1.40;;;21.10;82.90;;;;;;4976264;28;20035;-26
2023/08/17 06:23:52;;;;;;;2.00;1.30;;;21.10;82.90;;;;;;4988860;28;20442;-25
2023/08/17 06:26:18;;;;;;;4.00;1.40;;;21.10;82.80;;;;;;4976209;28;20030;-26
2023/08/17 06:28:44;;;;;;;1.70;1.30;;;21.00;82.70;;;;;;4992428;28;20026;-24
2023/08/17 06:31:10;;;;;;;1.83;1.17;;;21.10;82.90;;;;;;4957176;28;20429;-26
2023/08/17 06:33:35;;;;;;;2.20;1.30;;;21.00;82.90;;;;;;4988875;28;20061;-25
2023/08/17 06:36:01;;;;;;;2.22;1.38;;;21.00;83.00;;;;;;4991516;28;20050;-25
2023/08/17 06:38:27;;;;;;;1.30;1.13;;;21.10;83.10;;;;;;4974608;28;20406;-25
2023/08/17 06:40:53;;;;;;;1.60;1.30;;;21.00;82.90;;;;;;4981344;28;20026;-24
2023/08/17 06:43:19;;;;;;;4.43;1.30;;;21.10;83.10;;;;;;4990133;28;20025;-25
2023/08/17 06:45:44;;;;;;;1.83;1.13;;;21.10;83.10;;;;;;4967489;28;20830;-24
2023/08/17 06:48:10;;;;;;;1.90;1.08;;;21.10;83.10;;;;;;4990718;28;20450;-25
2023/08/17 06:50:36;;;;;;;1.60;1.13;;;21.00;83.00;;;;;;4988274;28;20604;-24
2023/08/17 06:53:02;;;;;;;2.17;1.30;;;21.10;83.10;;;;;;4995553;28;20079;-24
2023/08/17 06:55:28;;;;;;;1.95;1.45;;;21.10;83.10;;;;;;4982151;28;20732;-25
2023/08/17 06:57:54;;;;;;;1.42;1.30;;;21.10;83.20;;;;;;4994985;28;20075;-24
2023/08/17 07:00:21;;;;;;;1.40;1.30;;;21.10;83.20;;;;;;4974396;28;20029;-26
2023/08/17 07:02:50;;;;;;;2.50;1.20;;;21.10;83.20;;;;;;4983900;28;20474;-24
2023/08/17 07:05:18;;;;;;;1.75;1.42;;;21.20;83.60;;;;;;4978464;28;20457;-26
2023/08/17 07:07:44;;;;;;;1.92;1.30;;;21.20;83.20;;;;;;4988606;28;20312;-28
2023/08/17 07:10:10;;;;;;;2.25;1.30;;;21.20;83.20;;;;;;4973912;28;20029;-28
2023/08/17 07:12:37;;;;;;;1.73;1.20;;;21.20;83.30;;;;;;4977886;28;20778;-28
2023/08/17 07:15:04;;;;;;;1.85;1.30;;;21.30;83.40;;;;;;4973761;28;20022;-28
2023/08/17 07:17:30;;;;;;;2.25;1.23;;;21.30;83.50;;;;;;4965980;28;20875;-28
2023/08/17 07:19:56;;;;;;;1.85;1.10;;;21.30;83.50;;;;;;4991003;28;20033;-28
2023/08/17 07:22:22;;;;;;;1.53;1.23;;;21.30;83.60;;;;;;4987468;28;20060;-27
2023/08/17 07:24:48;;;;;;;1.75;1.10;;;21.30;83.50;;;;;;4987859;28;20026;-28
2023/08/17 07:27:13;;;;;;;3.75;1.30;;;21.40;83.50;;;;;;4992336;28;20026;-27
2023/08/17 07:29:39;;;;;;;2.00;1.27;;;21.40;83.40;;;;;;4980977;28;20602;-28
2023/08/17 07:32:05;;;;;;;2.92;1.30;;;21.50;83.50;;;;;;4969710;28;20033;-28
2023/08/17 07:34:31;;;;;;;1.93;1.20;;;21.50;83.60;;;;;;4989998;28;20302;-28
2023/08/17 07:36:57;;;;;;;2.60;1.25;;;21.50;83.60;;;;;;4987460;28;20498;-28
2023/08/17 07:39:23;;;;;;;1.73;1.30;;;21.60;83.70;;;;;;4986260;28;20069;-27
2023/08/17 07:41:49;;;;;;;2.70;1.17;;;21.70;83.90;;;;;;4989386;28;20145;-28
2023/08/17 07:44:15;;;;;;;2.38;1.40;;;21.70;83.80;;;;;;4983026;28;20033;-27
2023/08/17 07:46:40;;;;;;;2.40;1.53;;;21.80;83.80;;;;;;4987501;28;20285;-28
2023/08/17 07:49:06;;;;;;;2.07;1.30;;;21.80;83.80;;;;;;4954740;28;20265;-28
2023/08/17 07:51:33;;;;;;;1.88;1.25;;;21.90;83.90;;;;;;4988430;28;20391;-28
2023/08/17 07:54:02;;;;;;;4.00;1.30;;;21.90;83.80;;;;;;4989792;28;20068;-27
2023/08/17 07:56:27;;;;;;;1.75;1.13;;;22.00;83.80;;;;;;4986537;28;20041;-27
2023/08/17 07:58:54;;;;;;;2.27;1.37;;;22.00;83.80;;;;;;4973548;28;20045;-27
2023/08/17 08:01:20;;;;;;;2.72;1.52;;;22.10;83.90;;;;;;4978895;28;20023;-27
2023/08/17 08:03:45;;;;;;;2.00;1.40;;;22.20;83.80;;;;;;4966912;28;20061;-28
2023/08/17 08:06:12;;;;;;;2.93;1.50;;;22.20;83.60;;;;;;4989370;28;20035;-27
2023/08/17 08:08:39;;;;;;;2.38;1.50;;;22.20;83.50;;;;;;4985586;28;20023;-28
2023/08/17 08:11:06;;;;;;;2.47;1.30;;;22.30;83.40;;;;;;4976583;28;20061;-28
2023/08/17 08:13:32;;;;;;;2.50;1.43;;;22.30;83.30;;;;;;4986585;28;20421;-28
2023/08/17 08:16:00;;;;;;;2.78;1.70;;;22.30;83.20;;;;;;4969082;28;20473;-27
2023/08/17 08:18:26;;;;;;;2.08;1.35;;;22.30;82.90;;;;;;4973023;28;20029;-25
2023/08/17 08:20:52;;;;;;;2.67;1.38;;;22.40;83.10;;;;;;4990805;28;20022;-26
2023/08/17 08:23:18;;;;;;;1.80;1.40;;;22.40;83.00;;;;;;4987551;28;20671;-24
2023/08/17 08:25:44;;;;;;;2.72;1.40;;;22.40;82.90;;;;;;4994267;28;20029;-26
2023/08/17 08:28:09;;;;;;;2.53;1.33;;;22.40;82.90;;;;;;4982304;28;20108;-24
2023/08/17 08:30:35;;;;;;;3.07;1.40;;;22.40;82.90;;;;;;4968418;28;20029;-24
2023/08/17 08:33:02;;;;;;;2.75;1.58;;;22.40;82.90;;;;;;4956319;28;20085;-25
2023/08/17 08:35:29;;;;;;;2.20;1.55;;;22.40;82.80;;;;;;4989533;28;20049;-26
2023/08/17 08:37:58;;;;;;;2.13;1.40;;;22.40;82.90;;;;;;4983315;28;20030;-26
2023/08/17 08:40:29;;;;;;;2.30;1.40;;;22.40;83.00;;;;;;4989255;28;20030;-24
2023/08/17 08:42:56;;;;;;;2.08;1.63;;;22.50;83.00;;;;;;4985367;28;20189;-26
2023/08/17 08:45:23;;;;;;;1.90;1.50;;;22.50;83.20;;;;;;4981745;28;20627;-24
2023/08/17 08:47:50;;;;;;;2.30;1.52;;;22.50;83.30;;;;;;4979664;28;20030;-25
2023/08/17 08:50:21;;;;;;;2.50;1.53;;;22.60;83.40;;;;;;4967283;28;20144;-24
2023/08/17 08:52:59;;;;;;;1.90;1.50;;;22.70;83.20;;;;;;4980637;28;20040;-26
2023/08/17 08:55:29;;;;;;;2.30;1.50;;;22.70;83.10;;;;;;4987863;28;20120;-24
2023/08/17 08:57:56;;;;;;;3.92;1.50;;;22.70;82.90;;;;;;4991290;28;20030;-25
2023/08/17 09:00:24;;;;;;;2.58;1.50;;;22.50;82.30;;;;;;4992173;28;20026;-24
2023/08/17 09:02:51;;;;;;;4.57;1.83;;;22.80;83.10;;;;;;4982815;28;20043;-25
2023/08/17 09:05:17;;;;;;;3.42;1.75;;;22.80;83.10;;;;;;4967611;28;20720;-25
2023/08/17 09:07:43;;;;;;;2.50;1.88;;;22.90;83.30;;;;;;4985583;28;20022;-25
2023/08/17 09:10:10;;;;;;;3.25;1.75;;;22.90;83.20;;;;;;4968022;28;20139;-24
2023/08/17 09:12:36;;;;;;;2.75;1.80;;;23.00;83.30;;;;;;4991855;28;20419;-24
2023/08/17 09:15:02;;;;;;;2.63;1.70;;;23.10;83.30;;;;;;4987381;28;20087;-24
2023/08/17 09:17:28;;;;;;;2.25;1.65;;;23.10;83.30;;;;;;4979272;28;20399;-24
2023/08/17 09:19:54;;;;;;;2.42;1.70;;;23.20;83.30;;;;;;4958796;28;20042;-25
2023/08/17 09:22:24;;;;;;;2.60;1.67;;;23.30;83.10;;;;;;4973799;28;20072;-25
2023/08/17 09:24:50;;;;;;;2.92;1.83;;;23.30;82.90;;;;;;4989561;28;20072;-26
2023/08/17 09:27:17;;;;;;;3.30;1.92;;;23.40;83.00;;;;;;4989000;28;20044;-25
2023/08/17 09:29:45;;;;;;;3.13;1.90;;;23.50;83.00;;;;;;4988160;28;20108;-25
2023/08/17 09:32:14;;;;;;;2.83;1.90;;;23.50;82.70;;;;;;4959722;28;20161;-24
2023/08/17 09:34:44;;;;;;;3.17;1.90;;;23.50;82.50;;;;;;4979347;28;20091;-24
2023/08/17 09:37:12;;;;;;;2.47;1.73;;;23.50;82.50;;;;;;4962768;28;20045;-24
2023/08/17 09:39:38;;;;;;;2.55;1.70;;;23.60;82.50;;;;;;4980119;28;20026;-24
2023/08/17 09:42:04;;;;;;;3.22;1.80;;;23.60;82.70;;;;;;4980977;28;20139;-25
2023/08/17 09:44:34;;;;;;;4.07;1.87;;;23.60;82.70;;;;;;4986456;28;20033;-24
2023/08/17 09:47:01;;;;;;;3.17;1.95;;;23.60;82.50;;;;;;4974132;28;20431;-24
2023/08/17 09:49:31;;;;;;;2.95;1.92;;;24.40;82.70;;;;;;4978667;28;20026;-25
2023/08/17 09:52:00;;;;;;;3.65;2.10;;;23.70;82.30;;;;;;4964002;28;20821;-24
2023/08/17 09:54:26;;;;;;;4.20;1.90;;;23.70;82.20;;;;;;4993700;28;20391;-24
2023/08/17 09:56:53;;;;;;;3.00;2.00;;;23.80;82.20;;;;;;4980571;28;20056;-24
2023/08/17 09:59:20;;;;;;;3.75;2.00;;;23.80;82.20;;;;;;4990419;28;20026;-25
2023/08/17 10:01:49;;;;;;;3.85;2.15;;;23.80;82.30;;;;;;4976325;28;20030;-26
2023/08/17 10:04:22;;;;;;;5.32;2.05;;;23.80;82.20;;;;;;4994262;28;20154;-24
2023/08/17 10:06:52;;;;;;;4.45;2.17;;;23.90;82.20;;;;;;4955075;28;20040;-25
2023/08/17 10:09:24;;;;;;;3.70;2.30;;;23.90;82.20;;;;;;4994215;28;20027;-25
2023/08/17 10:11:52;;;;;;;2.90;1.92;;;24.00;82.00;;;;;;4972069;28;20994;-24
2023/08/17 10:14:34;;;;;;;3.08;2.20;;;24.00;82.10;;;;;;4985694;28;20018;-25
2023/08/17 10:17:12;;;;;;;3.92;1.85;;;24.00;82.10;;;;;;4976012;28;20889;-24
2023/08/17 10:19:51;;;;;;;4.05;2.50;;;24.10;82.10;;;;;;4984557;28;20026;-25
2023/08/17 10:22:36;;;;;;;4.77;2.13;;;24.20;81.90;;;;;;4982182;28;20645;-24
2023/08/17 10:25:03;;;;;;;3.90;2.55;;;24.20;81.50;;;;;;4973751;28;20311;-24
2023/08/17 10:27:29;;;;;;;3.03;2.33;;;24.20;81.60;;;;;;4980146;28;20133;-25
2023/08/17 10:29:55;;;;;;;4.43;2.40;;;24.20;81.40;;;;;;4983679;28;20399;-24
2023/08/17 10:32:23;;;;;;;3.17;2.60;;;24.20;81.40;;;;;;4976855;28;20535;-26
2023/08/17 10:34:51;;;;;;;3.07;2.23;;;24.20;81.40;;;;;;4983491;28;20620;-24
2023/08/17 10:37:18;;;;;;;3.78;2.28;;;24.20;81.60;;;;;;4984562;28;20141;-28
2023/08/17 10:39:48;;;;;;;4.03;2.10;;;24.20;81.80;;;;;;4952184;28;20034;-27
2023/08/17 10:42:14;;;;;;;3.47;2.50;;;24.30;81.70;;;;;;4983463;28;20025;-28
2023/08/17 10:44:48;;;;;;;4.17;2.50;;;24.30;81.70;;;;;;4988778;28;20061;-27
2023/08/17 10:47:31;;;;;;;3.35;2.33;;;24.30;81.60;;;;;;4976680;28;20046;-28
2023/08/17 10:50:04;;;;;;;5.18;2.40;;;24.40;81.70;;;;;;4983254;28;20606;-28
2023/08/17 10:52:31;;;;;;;4.75;2.40;;;24.40;81.50;;;;;;4993469;28;20038;-28
2023/08/17 10:55:05;;;;;;;4.10;2.60;;;24.50;81.50;;;;;;4961373;28;20568;-28
2023/08/17 10:57:36;;;;;;;4.03;2.40;;;24.50;81.30;;;;;;5000015;28;20104;-27
2023/08/17 11:00:26;;;;;;;4.72;2.72;;;24.50;81.20;;;;;;4979296;28;20490;-28
2023/08/17 11:03:00;;;;;;;3.85;2.53;;;24.50;80.90;;;;;;4974515;28;20487;-28
2023/08/17 11:06:07;;;;;;;4.93;2.88;;;24.50;80.80;;;;;;4987206;28;20053;-28
2023/08/17 11:08:42;;;;;;;3.88;2.65;;;24.50;80.60;;;;;;4978767;28;20059;-27
2023/08/17 11:11:13;;;;;;;4.20;2.50;;;24.40;80.50;;;;;;4964043;28;20044;-28
2023/08/17 11:13:44;;;;;;;3.75;2.85;;;24.40;80.60;;;;;;4979939;28;20395;-27
2023/08/17 11:16:12;;;;;;;5.32;2.90;;;24.40;80.60;;;;;;4990420;28;20091;-28
2023/08/17 11:18:38;;;;;;;4.05;2.70;;;24.40;80.50;;;;;;4974380;28;20058;-27
2023/08/17 11:21:05;;;;;;;4.22;2.72;;;24.40;80.60;;;;;;4985501;28;20262;-28
2023/08/17 11:23:32;;;;;;;5.13;2.80;;;24.30;80.50;;;;;;4975274;28;20145;-27
2023/08/17 11:25:58;;;;;;;4.63;2.83;;;24.30;80.60;;;;;;4964185;28;20896;-28
2023/08/17 11:28:25;;;;;;;4.80;2.88;;;24.30;80.70;;;;;;4986982;28;20065;-28
2023/08/17 11:31:01;;;;;;;4.32;2.97;;;24.30;81.00;;;;;;4977851;28;20035;-27
2023/08/17 11:33:28;;;;;;;4.72;2.97;;;24.30;81.20;;;;;;4982910;28;20476;-28
2023/08/17 11:36:01;;;;;;;5.37;3.00;;;24.40;81.30;;;;;;4968096;28;20302;-28
2023/08/17 11:38:31;;;;;;;4.90;2.88;;;24.40;81.40;;;;;;4980388;28;20034;-27
2023/08/17 11:40:58;;;;;;;4.68;2.88;;;24.50;81.40;;;;;;4976880;28;20035;-28
2023/08/17 11:43:24;;;;;;;4.70;3.05;;;24.50;81.60;;;;;;4961954;28;20561;-27
2023/08/17 11:45:51;;;;;;;5.30;3.15;;;24.60;81.40;;;;;;4975559;28;20026;-28
2023/08/17 11:48:19;;;;;;;7.77;3.10;;;24.70;81.30;;;;;;4984728;28;20035;-28
2023/08/17 11:50:45;;;;;;;5.15;3.28;;;24.70;81.30;;;;;;4974290;28;20109;-28
2023/08/17 11:53:11;;;;;;;5.50;3.22;;;24.80;81.30;;;;;;4986641;28;20084;-28
2023/08/17 11:55:37;;;;;;;4.65;2.95;;;24.80;81.10;;;;;;4975299;28;20042;-27
2023/08/17 11:58:04;;;;;;;5.13;3.40;;;24.90;81.00;;;;;;4968333;28;20040;-28
2023/08/17 12:00:36;;;;;;;5.15;3.30;;;24.90;80.70;;;;;;4969750;28;20038;-27
2023/08/17 12:03:04;;;;;;;5.18;3.17;;;25.00;80.60;;;;;;4988718;28;20054;-28
2023/08/17 12:05:31;;;;;;;4.70;3.15;;;25.00;80.60;;;;;;4979012;28;20130;-27
2023/08/17 12:07:57;;;;;;;4.28;3.00;;;25.00;80.70;;;;;;4985121;28;20030;-28
2023/08/17 12:10:23;;;;;;;4.47;3.00;;;25.00;80.90;;;;;;4969935;28;20045;-27
2023/08/17 12:12:49;;;;;;;5.53;3.30;;;25.00;80.90;;;;;;4963436;28;20042;-28
2023/08/17 12:15:18;;;;;;;4.73;3.07;;;25.10;80.70;;;;;;4991418;28;20108;-28
2023/08/17 12:17:46;;;;;;;4.13;2.88;;;25.10;80.50;;;;;;4977660;28;20022;-28
2023/08/17 12:20:19;;;;;;;5.25;3.45;;;25.20;80.60;;;;;;4993374;28;20041;-28
2023/08/17 12:22:46;;;;;;;5.18;3.30;;;25.20;80.30;;;;;;4977191;28;20546;-27
2023/08/17 12:25:12;;;;;;;4.47;3.05;;;25.20;80.40;;;;;;4984648;28;20041;-28
2023/08/17 12:27:38;;;;;;;5.10;3.13;;;25.20;80.60;;;;;;4966372;28;20226;-27
2023/08/17 12:30:04;;;;;;;6.65;3.65;;;25.30;80.90;;;;;;4986385;28;20030;-28
2023/08/17 12:32:30;;;;;;;4.57;3.30;;;25.40;80.80;;;;;;4961695;28;20143;-27
2023/08/17 12:34:55;;;;;;;4.37;3.37;;;25.40;80.90;;;;;;4987383;28;20029;-28
2023/08/17 12:37:21;;;;;;;5.35;3.45;;;25.50;80.80;;;;;;4976087;28;20018;-27
2023/08/17 12:39:50;;;;;;;4.60;3.30;;;25.50;80.60;;;;;;4986529;28;20057;-28
2023/08/17 12:42:16;;;;;;;4.97;3.15;;;25.60;80.40;;;;;;4955472;28;21225;-28
2023/08/17 12:44:42;;;;;;;4.97;3.20;;;25.70;80.70;;;;;;4987586;28;21920;-28
2023/08/17 12:47:08;;;;;;;4.70;3.37;;;25.70;80.60;;;;;;4982651;28;20022;-28